Time;durP1;ratioP1;P1;durP2;ratioP2;P2;SDS_P1;SDS_P2;PMS_P1;PMS_P2;Temp;Humidity;BMP_temperature;BMP_pressure;BME280_temperature;BME280_humidity;BME280_pressure;Samples;Min_cycle;Max_cycle;Signal;HPM_P1;HPM_P2
2021/06/21 00:00:11;;;;;;;10.63;5.80;;;18.80;99.90;;;17.75;99.04;100584.59;5017130;28;20034;-74
2021/06/21 00:02:38;;;;;;;12.93;6.15;;;18.70;99.90;;;17.70;98.88;100587.63;5000307;28;20025;-73
2021/06/21 00:05:06;;;;;;;7.90;5.57;;;18.80;99.90;;;17.71;99.27;100586.69;4996834;28;20076;-74
2021/06/21 00:07:32;;;;;;;10.38;5.70;;;18.70;99.90;;;17.71;99.17;100597.34;4999063;28;20377;-74
2021/06/21 00:09:58;;;;;;;8.32;5.55;;;18.70;99.90;;;17.66;98.89;100599.50;4997881;28;20039;-75
2021/06/21 00:12:24;;;;;;;8.73;5.88;;;18.70;99.90;;;17.65;99.41;100596.97;4998195;28;20023;-74
2021/06/21 00:14:50;;;;;;;7.90;5.57;;;18.70;99.90;;;17.65;99.66;100596.97;4990835;28;20117;-73
2021/06/21 00:17:16;;;;;;;8.75;6.03;;;18.70;99.90;;;17.55;99.41;100591.50;4997681;28;20114;-73
2021/06/21 00:19:46;;;;;;;11.00;5.35;;;18.60;99.90;;;17.45;99.75;100593.19;4998151;28;20105;-73
2021/06/21 00:22:14;;;;;;;8.55;5.45;;;18.60;99.90;;;17.51;99.99;100606.00;4999633;28;20100;-74
2021/06/21 00:24:42;;;;;;;9.45;5.75;;;18.60;99.90;;;17.57;100.00;100605.53;4997537;28;20199;-74
2021/06/21 00:27:09;;;;;;;9.57;5.68;;;18.60;99.90;;;17.63;100.00;100591.75;4980243;28;20029;-73
2021/06/21 00:29:35;;;;;;;9.23;5.90;;;18.70;99.90;;;17.71;100.00;100583.16;5032593;28;20033;-74
2021/06/21 00:32:01;;;;;;;10.50;5.30;;;18.80;99.90;;;17.97;99.28;100571.31;5020209;28;20030;-73
2021/06/21 00:34:27;;;;;;;10.13;6.03;;;19.00;99.90;;;18.15;98.05;100568.97;5016238;28;20060;-74
2021/06/21 00:36:53;;;;;;;7.80;5.32;;;19.10;99.90;;;18.21;97.86;100568.50;5011793;28;20032;-74
2021/06/21 00:39:19;;;;;;;8.60;5.53;;;19.20;99.90;;;18.28;97.59;100574.16;5017695;28;20098;-74
2021/06/21 00:41:45;;;;;;;7.22;5.57;;;19.20;99.90;;;18.24;97.71;100562.91;5006549;28;20036;-74
2021/06/21 00:44:11;;;;;;;6.60;5.03;;;19.20;99.90;;;18.23;97.44;100560.38;5023752;28;20029;-74
2021/06/21 00:46:37;;;;;;;6.13;4.53;;;19.30;99.90;;;18.26;97.66;100568.13;5020051;28;20490;-74
2021/06/21 00:49:04;;;;;;;14.40;4.90;;;19.30;99.90;;;18.30;97.62;100574.88;5004317;28;20029;-73
2021/06/21 00:51:31;;;;;;;6.32;4.55;;;19.30;99.90;;;18.33;97.64;100573.78;4995499;28;20517;-74
2021/06/21 00:53:57;;;;;;;8.50;5.45;;;19.30;99.90;;;18.28;98.22;100571.50;5009349;28;20485;-74
2021/06/21 00:56:25;;;;;;;8.07;5.32;;;19.30;99.90;;;18.25;98.06;100569.09;5000827;28;20452;-74
2021/06/21 00:58:57;;;;;;;8.90;5.38;;;19.30;99.90;;;18.20;98.58;100588.09;5014075;28;20519;-74
2021/06/21 01:01:23;;;;;;;8.48;5.70;;;19.20;99.90;;;18.23;98.19;100600.34;5002873;28;20112;-74
2021/06/21 01:03:49;;;;;;;8.70;5.38;;;19.20;99.90;;;18.23;98.23;100595.03;5001558;28;20390;-74
2021/06/21 01:06:15;;;;;;;7.50;5.50;;;19.20;99.90;;;18.22;98.53;100594.16;5010100;28;20037;-74
2021/06/21 01:08:41;;;;;;;12.32;5.22;;;19.30;99.90;;;18.21;98.60;100591.63;4992933;28;20034;-75
2021/06/21 01:11:08;;;;;;;7.60;4.90;;;19.20;99.90;;;18.20;98.38;100595.25;4984064;28;20033;-74
2021/06/21 01:14:04;;;;;;;7.53;5.22;;;19.30;99.90;;;18.22;98.26;100578.16;4984994;28;21072;-74
2021/06/21 01:17:21;;;;;;;9.75;5.20;;;19.20;99.90;;;18.22;98.52;100561.34;5034879;28;20086;-73
2021/06/21 01:20:30;;;;;;;9.27;4.57;;;19.30;99.90;;;18.29;98.68;100569.69;4998460;28;20030;-74
2021/06/21 01:23:39;;;;;;;11.45;5.38;;;19.30;99.90;;;18.23;98.99;100569.22;4956839;28;20076;-73
2021/06/21 01:26:42;;;;;;;15.55;5.90;;;19.20;99.90;;;18.21;99.51;100547.16;5022334;28;20038;-73
2021/06/21 01:29:45;;;;;;;9.77;5.78;;;19.20;99.90;;;18.21;99.59;100533.00;5018316;28;20082;-74
2021/06/21 01:32:17;;;;;;;7.25;4.70;;;19.20;99.90;;;18.17;99.86;100539.56;5036021;28;20026;-73
2021/06/21 01:34:51;;;;;;;8.30;4.88;;;19.30;99.90;;;18.17;99.62;100543.06;5021719;28;20515;-74
2021/06/21 01:37:19;;;;;;;8.88;4.95;;;19.20;99.90;;;18.14;99.92;100538.00;5008890;28;20026;-73
2021/06/21 01:39:55;;;;;;;7.03;4.35;;;19.20;99.90;;;18.19;99.20;100532.28;5002847;28;20100;-73
2021/06/21 01:42:24;;;;;;;7.53;4.47;;;19.20;99.90;;;18.20;98.97;100529.47;4997676;28;20022;-73
2021/06/21 01:45:01;;;;;;;6.30;4.30;;;19.50;99.90;;;18.27;98.87;100534.31;5001740;28;20036;-74
2021/06/21 01:47:29;;;;;;;8.48;4.43;;;19.30;99.90;;;18.21;98.73;100539.19;5014804;28;20505;-73
2021/06/21 01:49:57;;;;;;;7.70;4.57;;;19.20;99.90;;;18.18;98.92;100525.25;5002158;28;20041;-74
2021/06/21 01:52:26;;;;;;;6.15;3.92;;;19.20;99.90;;;18.15;98.55;100523.69;5000992;28;20029;-73
2021/06/21 01:54:57;;;;;;;5.47;3.85;;;19.20;99.90;;;18.11;98.92;100522.25;5001517;28;20126;-73
2021/06/21 01:57:28;;;;;;;7.30;3.72;;;19.10;99.90;;;18.08;98.66;100526.97;5001487;28;20045;-75
2021/06/21 01:59:56;;;;;;;6.40;3.90;;;19.10;99.90;;;18.04;98.36;100513.06;5014542;28;20044;-73
2021/06/21 02:02:25;;;;;;;6.45;3.95;;;19.10;99.90;;;18.08;98.09;100516.31;5001197;28;20033;-74
2021/06/21 02:04:56;;;;;;;7.13;3.55;;;19.10;99.90;;;18.08;97.18;100514.50;4998206;28;20041;-74
2021/06/21 02:07:23;;;;;;;5.63;3.05;;;19.10;99.90;;;18.12;96.52;100505.28;5000263;28;20052;-74
2021/06/21 02:09:54;;;;;;;5.60;2.95;;;19.10;99.90;;;18.11;96.47;100508.06;4999740;28;20050;-74
2021/06/21 02:12:23;;;;;;;5.32;2.78;;;19.10;99.90;;;18.09;96.30;100505.53;4998491;28;20543;-74
2021/06/21 02:14:51;;;;;;;4.07;3.28;;;19.10;99.90;;;18.07;96.06;100499.47;4999279;28;20444;-73
2021/06/21 02:17:25;;;;;;;5.20;3.00;;;19.80;99.90;;;18.06;96.46;100505.78;5000481;28;20018;-73
2021/06/21 02:19:53;;;;;;;3.95;2.97;;;19.10;99.90;;;18.02;96.06;100520.34;5029515;28;20030;-75
2021/06/21 02:22:29;;;;;;;6.07;2.40;;;19.00;99.90;;;17.96;96.54;100526.16;5023315;28;20500;-74
2021/06/21 02:25:00;;;;;;;4.35;2.92;;;19.00;99.90;;;17.94;96.67;100523.59;5020596;28;20037;-74
2021/06/21 02:27:27;;;;;;;4.38;2.75;;;19.00;99.90;;;17.94;96.67;100518.28;5021583;28;20119;-74
2021/06/21 02:29:56;;;;;;;4.88;2.40;;;18.90;99.90;;;17.86;96.83;100525.19;5019232;28;20449;-74
2021/06/21 02:32:23;;;;;;;3.70;2.38;;;18.90;99.90;;;17.87;96.42;100532.22;5036782;28;20386;-74
2021/06/21 02:34:52;;;;;;;2.83;2.05;;;18.90;99.90;;;17.81;96.30;100534.38;5021675;28;20048;-74
2021/06/21 02:37:18;;;;;;;3.40;2.45;;;18.90;99.90;;;17.85;96.60;100544.81;5021545;28;20132;-74
2021/06/21 02:39:44;;;;;;;3.67;2.03;;;18.90;99.90;;;17.87;95.46;100543.72;5021904;28;20033;-74
2021/06/21 02:42:12;;;;;;;2.17;1.60;;;18.90;99.90;;;17.91;94.20;100539.00;5021959;28;20558;-74
2021/06/21 02:44:38;;;;;;;4.68;1.55;;;19.00;99.90;;;17.96;92.10;100532.31;5035966;28;20029;-74
2021/06/21 02:47:05;;;;;;;8.93;1.60;;;19.00;99.90;;;17.92;91.99;100538.03;5020826;28;20029;-74
2021/06/21 02:49:31;;;;;;;5.20;1.40;;;18.90;99.90;;;17.92;91.10;100530.03;5010086;28;20084;-73
2021/06/21 02:52:45;;;;;;;4.78;1.30;;;18.90;99.90;;;17.92;90.48;100519.38;5020125;28;20030;-73
2021/06/21 02:55:23;;;;;;;1.75;1.08;;;19.00;99.90;;;17.88;90.52;100509.94;5048618;28;20052;-73
2021/06/21 02:58:17;;;;;;;3.60;1.08;;;18.90;99.90;;;17.86;90.40;100504.75;5028475;28;20025;-74
2021/06/21 03:00:45;;;;;;;6.13;0.95;;;18.90;99.90;;;17.79;91.00;100493.69;5020337;28;20013;-73
2021/06/21 03:03:11;;;;;;;4.18;1.27;;;18.80;99.90;;;17.72;91.21;100483.69;5018004;28;20032;-74
2021/06/21 03:05:38;;;;;;;1.30;1.08;;;18.80;99.90;;;17.70;91.18;100473.13;5017318;28;20143;-74
2021/06/21 03:08:09;;;;;;;1.40;0.82;;;18.80;99.90;;;17.67;91.16;100457.41;5019572;28;20094;-74
2021/06/21 03:10:39;;;;;;;1.55;0.93;;;18.70;99.90;;;17.67;90.96;100457.41;5000799;28;20033;-74
2021/06/21 03:13:07;;;;;;;1.83;0.82;;;18.80;99.90;;;17.71;90.47;100458.88;5012870;28;20038;-74
2021/06/21 03:15:35;;;;;;;2.28;0.82;;;18.70;99.90;;;17.70;90.16;100451.00;5020257;28;20032;-74
2021/06/21 03:18:01;;;;;;;2.38;1.02;;;18.80;99.90;;;17.72;88.71;100444.56;5018784;28;20083;-74
2021/06/21 03:20:28;;;;;;;1.27;0.60;;;18.80;99.90;;;17.73;88.29;100443.63;5034932;28;20390;-75
2021/06/21 03:23:00;;;;;;;5.03;0.80;;;18.90;99.90;;;17.89;86.14;100440.56;4986186;28;20033;-73
2021/06/21 03:25:29;;;;;;;1.85;0.60;;;19.00;99.90;;;17.97;85.04;100439.94;5019926;28;20032;-74
2021/06/21 03:27:57;;;;;;;1.65;0.47;;;19.10;99.90;;;18.07;82.87;100448.84;5019267;28;20029;-74
2021/06/21 03:30:25;;;;;;;0.40;0.40;;;19.20;99.90;;;18.20;82.41;100438.03;5016989;28;20082;-75
2021/06/21 03:32:53;;;;;;;0.70;0.50;;;19.30;99.90;;;18.27;82.52;100435.69;5019623;28;20013;-74
2021/06/21 03:35:21;;;;;;;1.55;0.50;;;19.40;99.90;;;18.36;81.60;100432.28;5018007;28;20073;-74
2021/06/21 03:37:47;;;;;;;0.55;0.40;;;19.40;99.90;;;18.51;80.82;100436.31;5000675;28;20025;-75
2021/06/21 03:40:14;;;;;;;2.08;0.57;;;19.60;99.90;;;18.60;80.94;100443.53;4982353;28;20036;-73
2021/06/21 03:42:40;;;;;;;2.25;0.70;;;19.70;99.90;;;18.71;80.31;100437.28;4999459;28;20033;-74
2021/06/21 03:45:09;;;;;;;2.65;0.70;;;19.90;99.90;;;18.92;79.54;100444.44;5007939;28;20033;-74
2021/06/21 03:47:37;;;;;;;0.30;0.30;;;20.10;99.90;;;19.03;80.12;100452.38;5021910;28;20017;-74
2021/06/21 03:50:05;;;;;;;0.40;0.40;;;20.10;99.90;;;19.02;79.50;100450.69;4997614;28;20018;-74
2021/06/21 03:52:31;;;;;;;0.90;0.60;;;20.10;99.90;;;18.94;80.29;100439.81;4983881;28;20022;-74
2021/06/21 03:55:06;;;;;;;2.35;0.60;;;20.00;99.90;;;18.81;81.12;100416.88;4999992;28;20520;-74
2021/06/21 03:57:47;;;;;;;5.80;0.70;;;19.90;99.90;;;18.74;81.42;100405.00;5002953;28;20389;-74
2021/06/21 04:00:26;;;;;;;1.65;0.55;;;19.80;99.90;;;18.62;82.30;100398.09;5014113;28;20041;-74
2021/06/21 04:02:53;;;;;;;1.08;0.60;;;19.70;99.90;;;18.59;82.58;100399.16;5036229;28;20677;-74
2021/06/21 04:05:20;;;;;;;3.45;1.08;;;19.70;99.90;;;18.48;83.50;100399.25;5031572;28;20120;-74
2021/06/21 04:07:47;;;;;;;2.42;0.40;;;19.70;99.90;;;18.83;82.56;100403.41;5018340;28;20021;-75
2021/06/21 04:10:18;;;;;;;2.50;0.70;;;19.70;99.90;;;18.63;84.12;100395.25;5016044;28;20028;-74
2021/06/21 04:12:48;;;;;;;4.18;1.00;;;19.70;99.90;;;18.57;84.50;100387.78;5021285;28;20092;-74
2021/06/21 04:15:16;;;;;;;4.78;0.90;;;19.60;99.90;;;18.44;85.43;100384.47;5019457;28;20033;-74
2021/06/21 04:17:43;;;;;;;4.10;0.90;;;19.50;99.90;;;18.43;85.89;100369.47;5016300;28;20025;-74
2021/06/21 04:20:14;;;;;;;3.97;0.85;;;19.50;99.90;;;18.38;86.68;100375.19;5022026;28;20449;-74
2021/06/21 04:22:41;;;;;;;8.20;0.70;;;19.50;99.90;;;18.38;87.54;100371.66;5013410;28;20018;-74
2021/06/21 04:25:10;;;;;;;1.33;0.60;;;19.40;99.90;;;18.34;87.53;100367.59;5009853;28;20025;-74
2021/06/21 04:27:36;;;;;;;2.03;0.82;;;19.40;99.90;;;18.31;88.00;100373.16;5003095;28;20040;-74
2021/06/21 04:30:11;;;;;;;3.65;0.85;;;19.30;99.90;;;18.23;88.76;100368.50;5001025;28;20352;-73
2021/06/21 04:32:37;;;;;;;3.97;0.75;;;19.30;99.90;;;18.21;89.02;100360.63;4993556;28;20034;-74
2021/06/21 04:35:06;;;;;;;4.72;1.00;;;19.30;99.90;;;18.33;88.83;100364.06;5001196;28;20156;-74
2021/06/21 04:37:33;;;;;;;2.88;1.10;;;19.30;99.90;;;18.28;89.35;100365.44;4986082;28;20033;-74
2021/06/21 04:40:00;;;;;;;3.38;1.05;;;19.40;99.90;;;18.23;89.56;100368.50;4984168;28;20029;-74
2021/06/21 04:42:26;;;;;;;2.60;1.17;;;19.30;99.90;;;18.26;89.51;100378.06;5018013;28;20053;-74
2021/06/21 04:44:52;;;;;;;4.38;0.98;;;19.40;99.90;;;18.28;89.47;100386.78;5001505;28;20025;-74
2021/06/21 04:47:20;;;;;;;;;;;19.40;99.90;;;18.34;88.94;100410.25;5001114;28;20052;-74
2021/06/21 04:49:46;;;;;;;4.55;1.08;;;19.40;99.90;;;18.30;89.38;100436.31;5002191;28;19998;-74
2021/06/21 04:52:12;;;;;;;4.97;1.35;;;19.30;99.90;;;18.34;89.41;100596.81;5001641;28;20080;-73
2021/06/21 04:54:39;;;;;;;3.85;0.90;;;19.20;99.90;;;18.19;88.96;100626.38;4993364;28;20068;-72
2021/06/21 04:57:06;;;;;;;4.35;1.30;;;19.10;99.90;;;18.13;89.17;100645.53;5002888;28;20140;-73
2021/06/21 04:59:32;;;;;;;3.55;0.80;;;19.10;99.90;;;18.08;89.06;100653.06;4998631;28;20185;-75
2021/06/21 05:01:58;;;;;;;13.38;1.80;;;19.00;99.90;;;17.98;90.59;100564.16;4994750;28;20479;-74
2021/06/21 05:04:24;;;;;;;7.90;1.67;;;19.00;99.90;;;17.94;90.51;100600.00;4992801;28;20026;-76
2021/06/21 05:06:50;;;;;;;18.30;1.75;;;18.90;99.90;;;17.77;94.32;100622.63;4998897;28;20402;-76
2021/06/21 05:09:19;;;;;;;8.07;1.80;;;18.50;99.90;;;16.90;98.96;100563.69;4996903;28;20309;-78
2021/06/21 05:11:45;;;;;;;15.23;2.22;;;18.10;99.90;;;16.70;100.00;100519.97;4976134;28;20443;-78
2021/06/21 05:14:11;;;;;;;10.77;2.10;;;17.90;99.90;;;16.65;100.00;100498.19;4990471;28;20113;-78
2021/06/21 05:16:37;;;;;;;8.73;1.85;;;17.80;99.90;;;16.58;100.00;100480.03;4951860;28;20574;-77
2021/06/21 05:19:03;;;;;;;11.75;2.20;;;17.60;99.90;;;16.46;100.00;100461.50;4988927;28;20029;-79
2021/06/21 05:21:37;;;;;;;7.80;2.22;;;17.60;99.90;;;16.43;100.00;100465.25;5012657;28;20397;-79
2021/06/21 05:24:04;;;;;;;9.70;1.90;;;17.80;99.90;;;16.41;100.00;100467.16;5007871;28;20068;-78
2021/06/21 05:26:30;;;;;;;12.60;2.70;;;17.50;99.90;;;16.35;100.00;100463.19;4967700;28;20072;-78
2021/06/21 05:28:56;;;;;;;11.85;2.17;;;17.50;99.90;;;16.31;100.00;100443.13;4954022;28;20588;-80
2021/06/21 05:31:22;;;;;;;18.20;2.70;;;17.40;99.90;;;16.27;100.00;100443.47;4994767;28;20024;-78
2021/06/21 05:33:50;;;;;;;10.95;2.30;;;17.40;99.90;;;16.33;100.00;100432.38;5021538;28;20046;-78
2021/06/21 05:36:16;;;;;;;10.10;2.20;;;17.40;99.90;;;16.33;100.00;100425.25;4971821;28;20359;-76
2021/06/21 05:38:42;;;;;;;8.07;2.78;;;17.40;99.90;;;16.33;100.00;100422.59;4983124;28;20052;-78
2021/06/21 05:41:08;;;;;;;5.57;2.50;;;17.40;99.90;;;16.33;100.00;100406.66;4994282;28;20416;-76
2021/06/21 05:43:34;;;;;;;5.32;2.53;;;17.40;99.90;;;16.39;100.00;100405.31;4991460;28;20145;-77
2021/06/21 05:46:00;;;;;;;20.42;3.05;;;17.50;99.90;;;16.40;100.00;100399.91;5002587;28;21445;-76
2021/06/21 05:48:26;;;;;;;5.88;2.15;;;17.50;99.90;;;16.43;100.00;100390.84;4999361;28;20101;-75
2021/06/21 05:50:54;;;;;;;9.13;2.78;;;17.50;99.90;;;16.40;100.00;100375.16;4998890;28;20121;-76
2021/06/21 05:53:22;;;;;;;5.93;2.50;;;17.50;99.90;;;16.46;100.00;100376.47;5019584;28;20049;-77
2021/06/21 05:55:49;;;;;;;7.43;2.42;;;17.60;99.90;;;16.52;100.00;100368.91;5015382;28;20706;-75
2021/06/21 05:58:19;;;;;;;5.97;2.70;;;17.70;99.90;;;16.61;100.00;100364.69;4983266;28;20106;-75
2021/06/21 06:00:47;;;;;;;6.15;2.63;;;17.70;99.90;;;16.62;100.00;100355.72;4991288;28;20046;-75
2021/06/21 06:03:13;;;;;;;7.30;2.70;;;17.70;99.90;;;16.64;100.00;100352.97;5018814;28;20221;-76
2021/06/21 06:05:39;;;;;;;8.88;2.30;;;17.80;99.90;;;16.69;100.00;100353.44;5000107;28;20034;-76
2021/06/21 06:08:05;;;;;;;7.88;2.40;;;17.80;99.90;;;16.73;100.00;100346.91;4997557;28;20398;-76
2021/06/21 06:10:32;;;;;;;7.25;2.55;;;17.90;99.90;;;16.78;100.00;100350.91;5000663;28;20063;-76
2021/06/21 06:12:58;;;;;;;10.63;2.40;;;17.90;99.90;;;16.86;100.00;100338.84;4998066;28;20022;-78
2021/06/21 06:15:24;;;;;;;10.55;2.63;;;18.00;99.90;;;16.91;100.00;100342.84;4984707;28;20030;-76
2021/06/21 06:17:51;;;;;;;10.18;2.72;;;18.10;99.90;;;16.96;100.00;100339.81;4983636;28;20064;-76
2021/06/21 06:20:18;;;;;;;12.10;2.65;;;18.10;99.90;;;17.04;100.00;100317.91;4981969;28;20045;-75
2021/06/21 06:22:49;;;;;;;8.93;2.33;;;18.20;99.90;;;17.17;100.00;100321.28;5001344;28;20032;-77
2021/06/21 06:25:16;;;;;;;5.28;2.28;;;18.30;99.90;;;17.25;100.00;100321.50;4998542;28;20024;-77
2021/06/21 06:27:43;;;;;;;10.60;2.40;;;18.40;99.90;;;17.38;100.00;100318.69;4997177;28;20024;-76
2021/06/21 06:30:11;;;;;;;7.97;2.20;;;18.50;99.90;;;17.37;100.00;100323.19;4997927;28;20037;-75
2021/06/21 06:32:39;;;;;;;8.63;2.45;;;18.50;99.90;;;17.42;100.00;100328.13;4983269;28;20105;-76
2021/06/21 06:35:08;;;;;;;10.98;1.95;;;18.60;99.90;;;17.51;100.00;100324.69;5000312;28;20030;-76
2021/06/21 06:37:35;;;;;;;6.45;2.08;;;18.70;99.90;;;17.67;100.00;100324.28;4997904;28;20029;-76
2021/06/21 06:40:01;;;;;;;6.47;2.20;;;18.80;99.90;;;17.86;100.00;100336.97;5010166;28;20098;-75
2021/06/21 06:42:27;;;;;;;14.90;2.67;;;19.00;99.90;;;17.97;100.00;100341.38;5011819;28;20040;-76
2021/06/21 06:44:53;;;;;;;9.27;2.50;;;19.10;99.90;;;18.09;99.63;100337.69;4996075;28;20056;-76
2021/06/21 06:47:26;;;;;;;7.03;1.80;;;19.30;99.90;;;18.20;98.02;100326.13;5008869;28;20447;-76
2021/06/21 06:49:54;;;;;;;8.75;2.00;;;19.40;99.90;;;18.29;97.71;100332.47;5035833;28;20029;-76
2021/06/21 06:52:22;;;;;;;7.95;1.58;;;19.40;99.90;;;18.28;97.60;100323.66;5034305;28;20484;-76
2021/06/21 06:57:40;;;;;;;5.10;1.73;;;19.60;99.90;;;18.72;96.54;100318.13;5017258;28;20063;-75
2021/06/21 07:00:10;;;;;;;6.55;1.52;;;19.80;99.90;;;18.79;95.81;100308.63;5000746;28;20045;-75
2021/06/21 07:02:41;;;;;;;5.32;1.42;;;20.00;99.90;;;19.05;94.69;100317.03;5013319;28;20036;-75
2021/06/21 07:05:08;;;;;;;6.43;1.48;;;20.10;99.90;;;19.18;92.46;100320.28;5000467;28;20111;-74
2021/06/21 07:07:34;;;;;;;5.55;1.42;;;20.30;99.90;;;19.25;93.01;100323.25;4998565;28;20098;-75
2021/06/21 07:10:00;;;;;;;7.07;1.10;;;20.30;99.90;;;19.41;92.55;100323.53;5002642;28;20038;-75
2021/06/21 07:12:26;;;;;;;6.40;1.30;;;20.50;99.90;;;19.32;91.45;100323.53;5001038;28;20022;-75
2021/06/21 07:14:52;;;;;;;6.75;1.13;;;20.50;99.90;;;19.26;91.34;100324.91;5000091;28;20046;-75
2021/06/21 07:17:18;;;;;;;4.32;1.65;;;20.50;99.90;;;19.20;92.22;100318.31;4997533;28;20481;-74
2021/06/21 07:19:44;;;;;;;4.05;1.15;;;20.40;99.90;;;19.15;92.53;100314.34;4983688;28;20037;-75
2021/06/21 07:22:10;;;;;;;6.53;1.40;;;20.40;99.90;;;19.32;93.51;100305.69;4997624;28;20026;-75
2021/06/21 07:24:36;;;;;;;3.08;1.17;;;20.40;99.90;;;19.29;92.21;100303.31;4997309;28;20032;-74
2021/06/21 07:27:04;;;;;;;6.90;1.58;;;20.30;99.90;;;19.15;92.46;100301.84;5018893;28;20034;-75
2021/06/21 07:29:30;;;;;;;4.32;1.70;;;20.30;99.90;;;19.18;92.57;100290.91;5019034;28;20103;-74
2021/06/21 07:31:57;;;;;;;5.03;1.40;;;20.40;99.90;;;19.41;92.67;100285.31;5016479;28;20029;-75
2021/06/21 07:34:23;;;;;;;3.88;1.73;;;20.60;99.90;;;19.74;91.61;100275.22;5018302;28;20053;-74
2021/06/21 07:36:49;;;;;;;4.38;1.50;;;20.90;99.90;;;20.16;90.77;100270.38;5019756;28;20048;-73
2021/06/21 07:39:15;;;;;;;5.47;1.50;;;21.30;99.90;;;20.34;88.11;100265.13;5000804;28;20033;-74
2021/06/21 07:41:42;;;;;;;2.65;1.17;;;21.30;99.90;;;20.15;89.49;100254.50;5003218;28;20018;-74
2021/06/21 07:44:07;;;;;;;6.72;1.50;;;21.20;99.90;;;20.22;87.85;100277.84;5020289;28;20098;-74
2021/06/21 07:46:34;;;;;;;5.05;1.55;;;21.30;99.90;;;20.22;87.95;100285.84;5016985;28;20492;-74
2021/06/21 07:49:00;;;;;;;8.90;1.77;;;21.30;99.90;;;20.10;88.25;100292.34;5019014;28;20036;-74
2021/06/21 07:51:27;;;;;;;5.63;1.30;;;21.40;99.90;;;20.46;89.33;100325.47;5022638;28;20041;-74
2021/06/21 07:53:53;;;;;;;4.22;1.48;;;21.50;99.90;;;20.52;87.06;100326.72;5005894;28;20152;-75
2021/06/21 07:56:21;;;;;;;4.28;1.40;;;21.80;99.90;;;20.57;85.37;100331.63;5021713;28;20060;-74
2021/06/21 07:58:48;;;;;;;4.60;1.45;;;22.20;99.90;;;20.80;86.85;100324.09;5023193;28;20022;-74
2021/06/21 08:01:16;;;;;;;4.60;1.65;;;22.50;99.90;;;21.53;84.44;100340.19;5026544;28;20055;-74
2021/06/21 08:03:44;;;;;;;6.70;1.90;;;22.60;99.90;;;21.40;84.98;100347.75;5028650;28;20025;-74
2021/06/21 08:06:11;;;;;;;7.50;1.45;;;22.60;99.90;;;21.35;81.55;100369.63;5031300;28;20052;-74
2021/06/21 08:08:42;;;;;;;3.67;1.35;;;22.90;99.90;;;22.12;82.26;100364.72;5021365;28;20025;-74
2021/06/21 08:11:12;;;;;;;7.20;1.60;;;23.50;99.90;;;22.60;81.38;100351.84;5024701;28;20029;-74
2021/06/21 08:13:39;;;;;;;4.90;1.38;;;23.90;99.90;;;22.49;82.07;100345.72;5012767;28;20521;-74
2021/06/21 08:16:05;;;;;;;6.60;1.30;;;24.60;99.90;;;23.78;73.34;100355.50;5024538;28;20473;-74
2021/06/21 08:18:31;;;;;;;4.57;1.42;;;25.50;99.90;;;24.60;72.83;100378.84;5002752;28;20083;-74
2021/06/21 08:20:59;;;;;;;5.55;1.50;;;25.60;99.90;;;24.27;68.83;100377.00;5020400;28;20045;-75
2021/06/21 08:23:26;;;;;;;4.25;1.50;;;25.20;99.90;;;23.02;72.11;100368.00;4996369;28;20031;-74
2021/06/21 08:25:52;;;;;;;7.60;1.70;;;25.10;99.90;;;24.21;70.53;100340.03;5003776;28;20120;-75
2021/06/21 08:28:18;;;;;;;6.85;1.60;;;25.80;99.90;;;24.65;69.41;100328.88;5019399;28;20521;-76
2021/06/21 08:30:48;;;;;;;4.53;1.80;;;25.80;99.90;;;24.43;68.79;100311.59;5023521;28;20103;-74
2021/06/21 08:33:15;;;;;;;4.22;1.75;;;25.80;99.90;;;24.42;69.50;100309.06;5019720;28;20470;-75
2021/06/21 08:35:41;;;;;;;3.60;1.63;;;25.80;99.90;;;24.54;70.57;100302.34;5019217;28;20041;-74
2021/06/21 08:38:07;;;;;;;4.78;2.10;;;25.90;99.90;;;24.82;69.24;100304.59;5002129;28;20022;-74
2021/06/21 08:40:33;;;;;;;4.32;2.03;;;25.40;99.90;;;23.71;71.32;100300.69;5006459;28;20029;-74
2021/06/21 08:43:03;;;;;;;4.68;2.10;;;24.20;99.90;;;22.43;74.17;100305.28;5020415;28;20033;-75
2021/06/21 08:45:35;;;;;;;3.53;2.20;;;24.20;99.90;;;23.61;75.95;100289.28;5019852;28;20017;-74
2021/06/21 08:48:09;;;;;;;6.32;2.67;;;24.50;99.90;;;23.30;73.76;100289.88;5022298;28;20090;-74
2021/06/21 08:50:39;;;;;;;5.68;2.80;;;24.60;99.90;;;23.54;71.94;100289.06;5000531;28;20022;-75
2021/06/21 08:53:05;;;;;;;7.38;3.67;;;24.80;99.90;;;23.67;70.29;100285.91;5021110;28;20068;-75
2021/06/21 08:55:31;;;;;;;6.20;3.10;;;24.90;99.90;;;23.65;68.62;100282.53;5020951;28;20112;-73
2021/06/21 08:57:57;;;;;;;10.05;3.55;;;24.80;99.90;;;24.02;68.54;100271.31;5021432;28;20029;-74
2021/06/21 09:00:27;;;;;;;10.00;3.20;;;25.20;99.90;;;24.27;68.91;100284.72;5008081;28;20029;-75
2021/06/21 09:03:18;;;;;;;9.45;2.97;;;24.90;99.90;;;23.70;70.37;100269.44;4980724;28;20036;-76
2021/06/21 09:06:07;;;;;;;14.10;4.20;;;24.70;99.90;;;23.58;70.83;100273.47;4960481;28;20084;-74
2021/06/21 09:09:08;;;;;;;8.05;3.88;;;24.40;99.90;;;23.34;73.07;100288.53;4959852;28;20061;-75
2021/06/21 09:12:06;;;;;;;9.30;4.35;;;24.40;99.90;;;23.52;74.25;100280.34;4961299;28;20095;-75
2021/06/21 09:14:59;;;;;;;7.60;3.63;;;24.50;99.90;;;23.77;72.31;100270.47;4960934;28;20034;-74
2021/06/21 09:17:49;;;;;;;10.27;3.90;;;24.60;99.90;;;24.14;71.48;100280.69;4962281;28;20500;-74
2021/06/21 09:20:28;;;;;;;8.48;3.80;;;24.90;99.90;;;23.89;70.73;100290.66;4968448;28;20044;-73
2021/06/21 09:23:18;;;;;;;8.68;3.92;;;24.60;99.90;;;23.89;71.46;100293.34;4960750;28;20405;-74
2021/06/21 09:26:28;;;;;;;8.25;3.55;;;24.70;99.90;;;24.34;71.57;100299.13;4994633;28;20455;-74
2021/06/21 09:29:19;;;;;;;7.63;3.53;;;25.10;99.90;;;24.22;70.75;100308.59;4978022;28;20038;-74
2021/06/21 09:32:09;;;;;;;5.85;3.95;;;24.80;99.90;;;23.96;71.65;100296.19;4957024;28;20127;-74
2021/06/21 09:34:57;;;;;;;9.68;4.03;;;25.10;99.90;;;24.27;70.38;100301.69;4982933;28;20513;-74
2021/06/21 09:37:54;;;;;;;8.05;4.30;;;24.90;99.90;;;23.61;71.83;100300.03;4981969;28;20561;-74
2021/06/21 09:41:04;;;;;;;13.05;4.57;;;25.10;99.90;;;24.69;70.46;100297.09;4966416;28;20041;-74
2021/06/21 09:44:14;;;;;;;8.43;4.30;;;25.70;99.90;;;24.79;67.86;100304.94;4959332;28;20037;-74
2021/06/21 09:47:53;;;;;;;6.25;3.80;;;25.80;99.90;;;24.53;67.67;100300.66;4981268;28;20112;-74
2021/06/21 09:51:36;;;;;;;10.07;4.55;;;25.40;99.90;;;24.47;71.82;100312.06;4994157;28;20068;-73
2021/06/21 09:54:58;;;;;;;11.50;4.70;;;25.30;99.90;;;25.05;69.81;100301.97;4989513;28;20736;-74
2021/06/21 09:58:29;;;;;;;11.10;4.93;;;25.40;99.90;;;23.75;71.50;100308.28;4991166;28;20094;-74
2021/06/21 10:02:34;;;;;;;13.57;5.18;;;24.60;99.90;;;23.22;73.70;100312.22;4987167;28;20397;-74
2021/06/21 10:09:44;;;;;;;11.43;4.95;;;25.40;99.90;;;24.88;70.68;100293.13;4986397;28;20527;-74
2021/06/21 10:12:50;;;;;;;13.13;4.28;;;26.20;99.90;;;25.52;68.58;100292.94;4984727;28;20120;-73
2021/06/21 10:16:14;;;;;;;13.13;5.38;;;26.70;99.90;;;26.09;66.85;100297.91;4980313;28;20416;-74
2021/06/21 10:19:55;;;;;;;13.00;5.53;;;26.50;99.90;;;25.71;68.11;100294.34;4987432;28;20036;-74
2021/06/21 10:24:04;;;;;;;7.97;5.00;;;26.00;99.90;;;25.33;66.22;100291.56;4995159;28;20033;-74
2021/06/21 10:27:27;;;;;;;9.18;4.57;;;26.60;99.90;;;26.39;63.98;100288.00;4986268;28;20043;-75
2021/06/21 10:30:54;;;;;;;17.20;5.22;;;27.00;99.90;;;25.82;66.16;100285.81;4990947;28;20037;-74
2021/06/21 10:34:21;;;;;;;8.32;5.18;;;26.80;99.90;;;25.99;65.79;100287.38;4986025;28;20067;-74
2021/06/21 10:38:02;;;;;;;10.30;5.53;;;27.00;99.90;;;25.52;66.92;100284.88;4983620;28;20497;-75
2021/06/21 10:41:15;;;;;;;19.02;5.25;;;26.90;99.90;;;26.57;63.33;100284.13;4969033;28;20041;-74
2021/06/21 10:44:08;;;;;;;10.60;4.60;;;27.20;99.90;;;26.91;63.29;100290.75;4959492;28;20037;-74
2021/06/21 10:47:24;;;;;;;12.98;5.30;;;27.20;99.90;;;26.37;65.67;100291.88;4963478;28;20045;-74